PDT,Max TemperatureF,Mean TemperatureF,Min TemperatureF,Max Dew PointF,MeanDew PointF,Min DewpointF,Max Humidity, Mean Humidity, Min Humidity, Max Sea Level PressureIn, Mean Sea Level PressureIn, Min Sea Level PressureIn, Max VisibilityMiles, Mean VisibilityMiles, Min VisibilityMiles, Max Wind SpeedMPH, Mean Wind SpeedMPH, Max Gust SpeedMPH,PrecipitationIn, CloudCover, Events, WindDirDegrees
2012-3-1,47,40,32,37,33,30,96,81,65,30.42,30.10,29.84,10,9,2,16,6,20,0.21,6,Rain-Snow,181
2012-3-2,49,43,36,38,36,34,92,77,61,30.50,30.47,30.44,10,10,10,18,9,23,T,8,,171
2012-3-3,57,50,44,46,42,38,83,73,62,30.48,30.45,30.39,10,10,10,15,6,,T,6,Rain,166
2012-3-4,51,46,42,43,42,39,96,82,68,30.32,30.22,30.10,10,8,2,6,1,,0.00,5,,30
2012-3-5,48,44,39,45,39,30,93,80,67,29.97,29.91,29.85,10,8,1,20,15,28,0.00,8,Rain,224
2012-3-6,42,38,33,34,30,27,92,75,57,30.30,30.20,30.12,10,8,3,6,3,,0.00,6,Rain-Snow,170
2012-3-7,50,38,25,32,28,25,92,66,39,30.47,30.41,30.33,10,10,10,13,3,24,0.00,0,,9
2012-3-8,65,46,27,42,35,26,92,65,37,30.32,30.26,30.19,10,10,10,8,2,25,0.00,0,,127
2012-3-9,61,49,36,41,38,34,92,67,42,30.30,30.20,30.07,10,10,9,13,5,25,0.00,1,,165
2012-3-10,53,49,45,45,40,35,86,76,66,30.06,29.90,29.72,10,10,6,21,11,26,T,8,Rain,172
2012-3-11,46,43,39,40,36,30,92,75,58,29.87,29.76,29.67,10,9,4,22,13,32,0.31,6,Rain,188
2012-3-12,52,42,32,43,35,30,93,72,50,29.75,29.48,29.38,10,8,4,43,19,56,1.26,8,Rain-Snow,201
2012-3-13,45,39,32,37,33,30,96,77,58,29.89,29.67,29.46,10,7,2,21,10,28,0.45,7,Rain-Snow,175
2012-3-14,51,45,38,46,40,33,93,82,71,29.86,29.81,29.76,10,9,4,24,12,37,0.69,8,Rain,162
2012-3-15,53,49,45,50,47,43,96,90,83,29.74,29.71,29.63,10,8,2,29,15,41,0.93,8,Rain,191
2012-3-16,55,48,41,43,40,36,92,71,50,29.78,29.58,29.33,10,9,5,18,9,29,0.48,7,Rain,184
2012-3-17,49,43,37,39,37,35,100,81,61,29.67,29.60,29.36,10,10,9,17,9,21,0.07,7,Rain,196
2012-3-18,47,39,30,36,31,25,100,74,48,29.91,29.74,29.63,10,10,10,17,6,22,T,6,Rain,246
2012-3-19,44,39,33,39,34,29,89,80,70,29.94,29.88,29.75,10,9,5,22,10,26,0.07,8,Rain-Snow,158
2012-3-20,48,41,34,45,40,33,93,85,76,30.05,29.89,29.73,10,8,2,26,12,35,0.63,8,Rain,191
2012-3-21,36,34,32,34,32,30,100,95,89,30.07,29.94,29.84,10,2,0,9,3,16,1.27,8,Fog-Rain-Snow,337
2012-3-22,46,39,32,35,32,30,100,83,65,30.07,29.98,29.87,10,8,1,14,5,16,0.07,5,Snow,163
2012-3-23,56,42,28,38,33,27,100,73,45,30.01,29.95,29.86,10,6,0,15,5,28,0.00,3,Fog,45
2012-3-24,63,52,41,41,37,34,79,58,36,29.90,29.85,29.81,10,10,10,20,7,24,0.00,3,,302
2012-3-25,50,45,39,43,40,36,92,82,71,29.86,29.80,29.74,10,10,6,18,4,23,0.06,7,Rain,175
2012-3-26,56,44,32,41,36,30,100,74,47,29.88,29.82,29.67,10,5,0,21,7,25,T,5,Fog-Rain,156
2012-3-27,55,50,45,50,46,40,93,85,77,29.69,29.61,29.50,10,9,5,12,4,33,0.16,8,Rain,76
2012-3-28,54,50,45,43,41,38,83,73,63,30.42,30.08,29.67,10,9,3,28,16,39,0.04,7,Rain,181
2012-3-29,55,51,47,50,47,41,89,75,61,30.41,29.98,29.51,10,8,2,32,19,45,0.28,8,Rain,172
2012-3-30,54,48,42,52,46,37,96,86,76,30.41,29.73,29.52,10,7,4,25,13,36,0.97,8,Rain,192
2012-3-31,55,48,40,43,40,36,100,80,59,29.67,29.48,29.35,10,9,6,18,8,23,0.45,7,Rain,199